createdAt,value
2019-04-23T02:23:01.437Z,9.65
2019-04-23T02:25:28.043Z,10.65
2019-04-23T02:38:31.849Z,10.08
2019-04-23T02:43:24.523Z,10.70
2019-04-23T02:46:05.550Z,10.18
2019-04-23T02:51:12.548Z,11.03
2019-04-23T02:56:21.539Z,9.13
2019-04-23T03:08:54.721Z,13.55
2019-04-23T03:14:02.448Z,15.55
2019-04-23T03:19:13.654Z,16.23
2019-04-23T03:21:57.675Z,10.70
2019-04-23T03:35:16.352Z,20.32
2019-04-23T03:37:30.907Z,12.90
2019-04-23T03:39:59.875Z,9.77
2019-04-23T03:49:55.564Z,11.38
2019-04-23T03:54:49.249Z,10.17
2019-04-23T03:57:40.067Z,11.37
2019-04-23T04:05:15.206Z,13.90
2019-04-23T04:10:19.285Z,10.78
2019-04-23T04:12:39.887Z,18.00
2019-04-23T04:15:33.195Z,14.95
2019-04-23T04:18:03.990Z,13.32
2019-04-23T04:23:07.834Z,12.30
2019-04-23T04:25:33.883Z,12.65
2019-04-23T04:28:12.117Z,19.48
2019-04-23T04:30:34.943Z,19.67
2019-04-23T04:33:19.644Z,13.00
2019-04-23T04:35:27.182Z,12.37
2019-04-23T04:38:25.654Z,12.30
2019-04-23T04:40:45.707Z,10.98
2019-04-23T04:46:04.784Z,12.65
2019-04-23T04:48:23.197Z,12.40
2019-04-23T04:51:00.140Z,12.67
2019-04-23T04:56:14.495Z,11.33
2019-04-23T04:58:43.399Z,11.13
2019-04-23T05:01:08.253Z,11.22
2019-04-23T05:06:16.340Z,13.15
2019-04-23T05:08:48.695Z,10.88
2019-04-23T05:11:19.650Z,10.95
2019-04-23T05:14:00.146Z,15.43
2019-04-23T05:19:06.740Z,9.90
2019-04-23T05:21:21.384Z,13.65
2019-04-23T05:23:54.565Z,9.83
2019-04-23T05:26:25.066Z,11.48
2019-04-23T05:31:27.641Z,13.70
2019-04-23T05:39:15.549Z,12.40
2019-04-23T05:44:15.920Z,9.83
2019-04-23T05:47:02.812Z,10.88
2019-04-23T05:49:22.411Z,11.15
2019-04-23T05:52:04.428Z,10.83
2019-04-23T05:56:54.106Z,13.62
2019-04-23T05:59:23.161Z,23.52
2019-04-23T06:04:32.456Z,10.57
2019-04-23T06:07:15.083Z,11.30
2019-04-23T06:14:50.829Z,12.10
2019-04-23T06:19:44.330Z,12.03
2019-04-23T06:24:47.144Z,13.38
2019-04-23T06:27:20.214Z,18.62
2019-04-23T06:29:50.007Z,13.53
2019-04-23T06:32:25.544Z,16.42
2019-04-23T06:34:57.504Z,13.00
2019-04-23T06:37:36.762Z,12.88
2019-04-23T06:39:59.832Z,13.37
2019-04-23T06:42:37.638Z,11.95
2019-04-23T06:45:04.850Z,11.68
2019-04-23T06:48:01.896Z,18.25
2019-04-23T06:50:13.470Z,19.37
2019-04-23T06:52:43.707Z,12.20
2019-04-23T06:55:20.635Z,12.23
2019-04-23T06:57:49.269Z,13.27
2019-04-23T07:00:25.212Z,14.28
2019-04-23T07:02:54.065Z,12.47
2019-04-23T07:05:34.766Z,13.58
2019-04-23T07:08:04.327Z,11.55
2019-04-23T07:10:42.201Z,15.75
2019-04-23T07:13:10.897Z,13.40
2019-04-23T07:15:46.476Z,11.10
2019-04-23T07:18:11.558Z,14.05
2019-04-23T07:20:50.568Z,12.78
2019-04-23T07:23:30.051Z,12.95
2019-04-23T07:26:03.767Z,12.53
2019-04-23T07:28:38.698Z,14.63
2019-04-23T07:31:07.708Z,12.68
2019-04-23T07:36:15.105Z,13.62
2019-04-23T07:41:19.934Z,15.58
2019-04-23T07:43:49.562Z,14.60
2019-04-23T07:46:29.769Z,13.13
2019-04-23T07:48:47.982Z,14.20
2019-04-23T07:51:19.804Z,16.40
2019-04-23T07:54:01.279Z,16.87
2019-04-23T07:56:27.989Z,14.00
2019-04-23T07:59:07.406Z,13.83
2019-04-23T08:01:26.770Z,18.87
2019-04-23T08:04:04.577Z,13.65
2019-04-23T08:06:41.187Z,14.07
2019-04-23T08:09:10.864Z,14.25
2019-04-23T08:11:40.386Z,14.43
2019-04-23T08:14:08.181Z,15.43
2019-04-23T08:16:40.534Z,16.12
2019-04-23T08:19:17.021Z,14.38
2019-04-23T08:21:58.193Z,14.40
2019-04-23T08:24:35.170Z,13.95
2019-04-23T08:26:59.571Z,13.05
2019-04-23T08:29:28.041Z,16.05
2019-04-23T08:32:09.083Z,15.08
2019-04-23T08:45:05.087Z,15.00
2019-04-23T08:47:31.689Z,14.70
2019-04-23T08:50:02.223Z,19.50
2019-04-23T08:52:30.050Z,14.40
2019-04-23T08:55:22.743Z,14.70
2019-04-23T08:57:36.930Z,15.93
2019-04-23T09:00:14.753Z,13.53
2019-04-23T09:05:28.531Z,20.30
2019-04-23T09:13:08.746Z,17.55
2019-04-23T09:15:31.479Z,15.23
2019-04-23T09:18:04.357Z,17.90
2019-04-23T09:20:27.688Z,18.67
2019-04-23T09:23:06.159Z,17.48
2019-04-23T09:25:44.515Z,15.27
2019-04-23T09:28:23.864Z,15.90
2019-04-23T09:30:49.235Z,16.17
2019-04-23T09:33:28.851Z,15.10
2019-04-23T09:35:52.719Z,15.23
2019-04-23T09:38:29.933Z,15.65
2019-04-23T09:41:13.053Z,15.13
2019-04-23T09:43:33.194Z,16.85
2019-04-23T09:46:11.999Z,17.73
2019-04-23T09:48:47.127Z,20.35
2019-04-23T09:51:10.147Z,14.25
2019-04-23T09:53:48.654Z,19.55
2019-04-23T09:56:14.456Z,15.38
2019-04-23T09:58:52.145Z,16.30
2019-04-23T10:01:26.016Z,17.30
2019-04-23T10:03:46.267Z,14.15
2019-04-23T10:06:14.530Z,16.02
2019-04-23T10:08:46.530Z,14.00
2019-04-23T10:11:13.589Z,13.70
2019-04-23T10:13:45.047Z,15.00
2019-04-23T10:16:19.468Z,13.85
2019-04-23T10:18:49.118Z,16.65
2019-04-23T10:21:21.354Z,15.95
2019-04-23T10:23:52.318Z,17.73
2019-04-23T10:26:24.050Z,14.13
2019-04-23T10:28:57.992Z,14.13
2019-04-23T10:31:28.794Z,16.10
2019-04-23T10:34:00.285Z,14.18
2019-04-23T10:36:32.573Z,13.50
2019-04-23T10:39:10.705Z,18.35
2019-04-23T10:41:37.938Z,14.23
2019-04-23T10:44:10.894Z,19.70
2019-04-23T10:47:11.528Z,14.68
2019-04-23T10:50:00.987Z,16.87
2019-04-23T10:52:20.511Z,17.05
2019-04-23T10:54:45.703Z,13.07
2019-04-23T11:00:09.168Z,13.67
2019-04-23T11:07:31.360Z,16.75
2019-04-23T11:10:11.221Z,15.55
2019-04-23T11:12:42.492Z,17.37
2019-04-23T11:15:22.830Z,15.48
2019-04-23T11:17:46.366Z,15.35
2019-04-23T11:22:57.187Z,16.93
2019-04-23T11:30:33.454Z,16.73
2019-04-23T11:33:10.223Z,16.60
2019-04-23T11:35:39.559Z,17.82
2019-04-23T11:40:32.797Z,15.70
2019-04-23T11:43:14.386Z,16.90
2019-04-23T11:53:27.811Z,19.37
2019-04-23T11:56:16.098Z,19.30
2019-04-23T12:01:11.843Z,26.80
2019-04-23T12:03:37.698Z,25.40
2019-04-23T12:08:43.214Z,27.02
2019-04-23T12:13:54.489Z,19.30
2019-04-23T12:16:31.972Z,22.77
2019-04-23T12:19:12.592Z,21.35
2019-04-23T12:21:28.423Z,28.57
2019-04-23T12:24:12.238Z,32.75
2019-04-23T12:26:35.444Z,31.55
2019-04-23T12:29:29.220Z,27.15
2019-04-23T12:31:40.022Z,30.17
2019-04-23T12:34:14.215Z,32.53
2019-04-23T12:36:52.728Z,33.57
2019-04-23T12:41:52.835Z,32.95
2019-04-23T12:44:22.085Z,32.58
2019-04-23T12:46:57.726Z,31.93
2019-04-23T12:52:02.413Z,25.60
2019-04-23T12:54:42.873Z,24.67
2019-04-23T12:57:12.641Z,31.02
2019-04-23T12:59:41.311Z,22.48
2019-04-23T13:02:15.515Z,21.12
2019-04-23T13:04:48.439Z,20.60
2019-04-23T13:07:17.692Z,20.17
2019-04-23T13:10:01.577Z,19.55
2019-04-23T13:12:33.251Z,18.42
2019-04-23T13:14:59.464Z,18.82
2019-04-23T13:17:46.944Z,21.10
2019-04-23T13:25:01.992Z,20.48
2019-04-23T13:27:38.745Z,19.92
2019-04-23T13:30:14.408Z,20.08
2019-04-23T13:32:48.723Z,25.43
2019-04-23T13:35:28.019Z,23.67
2019-04-23T13:37:54.810Z,21.82
2019-04-23T13:40:27.730Z,26.00
2019-04-23T13:42:52.328Z,29.05
2019-04-23T13:45:47.487Z,21.57
2019-04-23T13:50:37.118Z,29.77
2019-04-23T13:55:27.802Z,28.15
2019-04-23T14:01:00.665Z,35.95
2019-04-23T14:03:13.704Z,26.15
2019-04-23T14:05:57.405Z,25.85
2019-04-23T14:08:45.209Z,32.80
2019-04-23T14:10:57.294Z,31.73
2019-04-23T14:13:40.518Z,28.92
2019-04-23T14:16:04.532Z,27.05
2019-04-23T14:21:08.174Z,34.70
2019-04-23T14:23:52.694Z,24.30
2019-04-23T14:26:15.898Z,28.60
2019-04-23T14:31:13.096Z,26.48
2019-04-23T14:33:52.658Z,25.82
2019-04-23T14:36:19.480Z,25.40
2019-04-23T14:38:52.758Z,29.60
2019-04-23T14:44:02.063Z,26.17
2019-04-23T14:54:23.553Z,26.82
2019-04-23T14:56:51.451Z,29.75
2019-04-23T15:01:54.897Z,28.37
2019-04-23T15:04:11.084Z,23.80
2019-04-23T15:06:57.440Z,28.62
2019-04-23T15:12:04.885Z,26.15
2019-04-23T15:14:23.323Z,27.60
2019-04-23T15:17:00.083Z,34.70
2019-04-23T15:19:38.074Z,31.42
2019-04-23T15:29:27.931Z,34.67
2019-04-23T15:34:47.281Z,43.70
2019-04-23T15:39:55.422Z,32.58
2019-04-23T15:42:26.512Z,36.38
2019-04-23T15:44:55.340Z,43.73
2019-04-23T15:52:39.495Z,36.10
2019-04-23T15:55:01.228Z,26.10
2019-04-23T15:57:56.234Z,32.70
2019-04-23T16:00:05.502Z,25.77
2019-04-23T16:02:12.763Z,27.05
2019-04-23T16:04:44.021Z,22.13
2019-04-23T16:07:31.373Z,22.67
2019-04-23T16:10:19.096Z,26.05
2019-04-23T16:12:54.684Z,31.42
2019-04-23T16:15:35.466Z,24.85
2019-04-23T16:17:55.824Z,26.40
2019-04-23T16:20:33.462Z,29.00
2019-04-23T16:22:50.680Z,33.60
2019-04-23T16:25:45.668Z,28.98
2019-04-23T16:28:02.193Z,27.25
2019-04-23T16:30:31.341Z,30.72
2019-04-23T16:33:17.183Z,24.55
2019-04-23T16:35:56.713Z,37.88
2019-04-23T16:40:54.793Z,35.00
2019-04-23T16:43:18.436Z,30.15
2019-04-23T16:48:55.331Z,31.83
2019-04-23T16:56:13.387Z,27.27
2019-04-23T17:11:18.851Z,34.40
2019-04-23T17:13:55.417Z,30.12
2019-04-23T17:19:08.872Z,23.22
2019-04-23T17:21:32.626Z,22.60
2019-04-23T17:24:09.672Z,24.20
2019-04-23T17:26:32.243Z,23.38
2019-04-23T17:29:06.535Z,27.30
2019-04-23T17:34:17.615Z,24.40
2019-04-23T17:39:21.223Z,25.82
2019-04-23T17:42:18.136Z,24.50
2019-04-23T17:46:58.873Z,25.60
2019-04-23T17:49:55.654Z,30.82
2019-04-23T17:52:05.054Z,42.75
2019-04-23T17:54:30.900Z,31.10
2019-04-23T18:00:01.027Z,27.70
2019-04-23T18:02:41.956Z,29.32
2019-04-23T18:07:32.247Z,31.52
2019-04-23T18:09:58.367Z,26.93
2019-04-23T18:12:31.228Z,29.37
2019-04-23T18:15:00.739Z,27.10
2019-04-23T18:20:06.648Z,27.17
2019-04-23T18:22:37.175Z,36.30
2019-04-23T18:27:42.467Z,37.25
2019-04-23T18:30:15.747Z,35.55
2019-04-23T18:33:18.265Z,28.50
2019-04-23T18:35:28.272Z,32.93
2019-04-23T18:40:28.751Z,40.70
2019-04-23T18:43:07.424Z,35.93
2019-04-23T18:45:38.770Z,28.27
2019-04-23T18:48:23.366Z,31.35
2019-04-23T18:50:48.174Z,30.43
2019-04-23T18:53:11.178Z,39.58
2019-04-23T18:55:58.806Z,33.05
2019-04-23T18:58:09.574Z,38.13
2019-04-23T19:03:30.586Z,29.53
2019-04-23T19:06:10.492Z,36.25
2019-04-23T19:10:57.920Z,30.62
2019-04-23T19:15:53.626Z,31.65
2019-04-23T19:18:45.164Z,27.87
2019-04-23T19:21:21.556Z,30.37
2019-04-23T19:26:15.816Z,34.75
2019-04-23T19:29:05.565Z,29.75
2019-04-23T19:31:27.679Z,31.55
2019-04-23T19:34:02.964Z,38.38
2019-04-23T19:36:26.530Z,31.15
2019-04-23T19:39:03.573Z,31.33
2019-04-23T19:41:39.215Z,31.02
2019-04-23T19:44:01.400Z,31.95
2019-04-23T19:46:49.098Z,35.15
2019-04-23T19:56:51.384Z,37.45
2019-04-23T19:59:25.333Z,37.95
2019-04-23T20:01:58.631Z,43.65
2019-04-23T20:04:23.638Z,36.55
2019-04-23T20:12:01.084Z,40.60
2019-04-23T20:14:56.464Z,38.20
2019-04-23T20:17:23.138Z,37.78
2019-04-23T20:19:48.613Z,37.58
2019-04-23T20:22:16.721Z,34.03
2019-04-23T20:25:04.177Z,36.40
2019-04-23T20:30:07.399Z,35.28
2019-04-23T20:37:42.793Z,34.27
2019-04-23T20:42:48.252Z,36.88
2019-04-23T20:44:58.875Z,36.00
2019-04-23T20:47:30.659Z,38.35
2019-04-23T20:49:51.862Z,37.45
2019-04-23T20:52:33.887Z,35.17
2019-04-23T20:55:06.749Z,34.63
2019-04-23T20:57:45.412Z,38.88
2019-04-23T21:15:42.148Z,38.90
2019-04-23T21:18:06.461Z,43.73
2019-04-23T21:20:50.011Z,37.38
2019-04-23T21:36:10.765Z,42.45
2019-04-23T21:38:39.507Z,45.95
2019-04-23T21:43:47.440Z,44.67
2019-04-23T21:46:15.216Z,45.00
2019-04-23T21:48:53.091Z,48.40
2019-04-23T21:51:22.933Z,52.95
2019-04-23T21:53:46.348Z,53.17
2019-04-23T21:56:15.231Z,48.70
2019-04-23T21:59:03.980Z,44.70
2019-04-23T22:01:32.134Z,50.60
2019-04-23T22:04:09.113Z,52.98
2019-04-23T22:06:35.542Z,50.97
2019-04-23T22:14:13.107Z,47.73
2019-04-23T22:19:27.583Z,44.33
2019-04-23T22:24:16.588Z,46.42
2019-04-23T22:26:48.328Z,43.85
2019-04-23T22:31:51.974Z,42.55
2019-04-23T22:37:07.951Z,44.63
2019-04-23T22:39:31.753Z,49.53
2019-04-23T22:42:03.202Z,49.90
2019-04-23T22:44:42.250Z,54.15
2019-04-23T22:49:45.167Z,44.48
2019-04-23T22:54:51.417Z,47.93
2019-04-23T22:57:09.135Z,55.60
2019-04-23T23:00:04.494Z,45.90
2019-04-23T23:02:30.345Z,53.10
2019-04-23T23:05:09.631Z,60.15
2019-04-23T23:07:41.511Z,50.00
2019-04-23T23:10:08.786Z,48.50
2019-04-23T23:12:44.911Z,54.77
2019-04-23T23:15:10.472Z,48.63
2019-04-23T23:17:52.624Z,52.80
2019-04-23T23:20:20.867Z,48.70
2019-04-23T23:25:23.845Z,48.65
2019-04-23T23:32:55.670Z,51.25
2019-04-23T23:38:00.564Z,42.27
2019-04-23T23:43:16.079Z,36.35
2019-04-23T23:45:44.909Z,47.90
2019-04-23T23:48:13.092Z,40.92
2019-04-23T23:53:23.343Z,40.10
2019-04-23T23:55:58.253Z,42.03
2019-04-23T23:58:23.475Z,34.53
